Okaloosa, Louisiana
Current Conditions -  °F | °C
As of 3:35 PM on Saturday 25 Oct 2014 (Local Time) from KRSN Reporting Station
Clear Clear  
Wind Chill: 82°   Ceiling: Unl
Heat Index: 82°   Visibility: 10mi
Dew Point: 60°   Wind: 6mph
Humidity: 47%   Direction: 250°WSW
Pressure: 30.11"   Gusts: NA
Location:  32.3575°N, 92.3661°W
Report Text: KRSN 252035Z AUTO 25005KT 10SM CLR 28/16 A3011 RMK AO2 T02760155
Loading
Personal Weather Stations






























Interactive Weather Map
Tropical Storm Tracking
New forecast layout! Learn more

10-Day Weather Forecast

Advertisements
Track Severe Weather on mobile